sensor_id;sensor_type;location;lat;lon;timestamp;P1;durP1;ratioP1;P2;durP2;ratioP2
65658;SDS011;60181;53.258;6.932;2024-01-16T00:03:39;5.90;;;1.00;;
65658;SDS011;60181;53.258;6.932;2024-01-16T00:07:51;5.90;;;1.00;;
65658;SDS011;60181;53.258;6.932;2024-01-16T00:12:04;4.90;;;1.00;;
65658;SDS011;60181;53.258;6.932;2024-01-16T00:16:15;4.90;;;1.00;;
65658;SDS011;60181;53.258;6.932;2024-01-16T00:20:27;5.00;;;1.00;;
65658;SDS011;60181;53.258;6.932;2024-01-16T00:24:39;5.00;;;1.00;;
65658;SDS011;60181;53.258;6.932;2024-01-16T00:28:51;5.00;;;1.00;;
65658;SDS011;60181;53.258;6.932;2024-01-16T00:33:04;3.20;;;0.80;;
65658;SDS011;60181;53.258;6.932;2024-01-16T00:37:15;3.20;;;0.80;;
65658;SDS011;60181;53.258;6.932;2024-01-16T00:41:27;2.00;;;0.70;;
65658;SDS011;60181;53.258;6.932;2024-01-16T00:45:39;2.00;;;0.70;;
65658;SDS011;60181;53.258;6.932;2024-01-16T00:49:51;2.00;;;0.70;;
65658;SDS011;60181;53.258;6.932;2024-01-16T00:54:03;2.50;;;0.70;;
65658;SDS011;60181;53.258;6.932;2024-01-16T00:58:15;2.50;;;0.70;;
65658;SDS011;60181;53.258;6.932;2024-01-16T01:02:27;2.30;;;0.80;;
65658;SDS011;60181;53.258;6.932;2024-01-16T01:06:39;2.30;;;0.80;;
65658;SDS011;60181;53.258;6.932;2024-01-16T01:10:51;9.70;;;0.90;;
65658;SDS011;60181;53.258;6.932;2024-01-16T01:15:04;9.70;;;0.90;;
65658;SDS011;60181;53.258;6.932;2024-01-16T01:19:15;9.70;;;0.90;;
65658;SDS011;60181;53.258;6.932;2024-01-16T01:23:27;3.70;;;0.80;;
65658;SDS011;60181;53.258;6.932;2024-01-16T01:27:39;3.70;;;0.80;;
65658;SDS011;60181;53.258;6.932;2024-01-16T01:31:51;2.90;;;0.70;;
65658;SDS011;60181;53.258;6.932;2024-01-16T01:36:03;2.90;;;0.70;;
65658;SDS011;60181;53.258;6.932;2024-01-16T01:40:15;1.50;;;0.60;;
65658;SDS011;60181;53.258;6.932;2024-01-16T01:44:27;1.50;;;0.60;;
65658;SDS011;60181;53.258;6.932;2024-01-16T01:48:40;1.50;;;0.60;;
65658;SDS011;60181;53.258;6.932;2024-01-16T01:52:51;4.10;;;0.60;;
65658;SDS011;60181;53.258;6.932;2024-01-16T01:57:04;4.10;;;0.60;;
65658;SDS011;60181;53.258;6.932;2024-01-16T02:01:16;1.70;;;0.60;;
65658;SDS011;60181;53.258;6.932;2024-01-16T02:05:27;1.70;;;0.60;;
65658;SDS011;60181;53.258;6.932;2024-01-16T02:09:39;1.70;;;0.60;;
65658;SDS011;60181;53.258;6.932;2024-01-16T02:13:51;2.20;;;0.50;;
65658;SDS011;60181;53.258;6.932;2024-01-16T02:18:04;2.20;;;0.50;;
65658;SDS011;60181;53.258;6.932;2024-01-16T02:22:16;3.50;;;0.60;;
65658;SDS011;60181;53.258;6.932;2024-01-16T02:26:27;3.50;;;0.60;;
65658;SDS011;60181;53.258;6.932;2024-01-16T02:30:41;1.70;;;0.60;;
65658;SDS011;60181;53.258;6.932;2024-01-16T02:34:51;1.70;;;0.60;;
65658;SDS011;60181;53.258;6.932;2024-01-16T02:39:03;1.70;;;0.60;;
65658;SDS011;60181;53.258;6.932;2024-01-16T02:43:15;2.50;;;0.50;;
65658;SDS011;60181;53.258;6.932;2024-01-16T02:47:27;2.50;;;0.50;;
65658;SDS011;60181;53.258;6.932;2024-01-16T02:51:39;3.10;;;0.70;;
65658;SDS011;60181;53.258;6.932;2024-01-16T02:55:51;3.10;;;0.70;;
65658;SDS011;60181;53.258;6.932;2024-01-16T03:00:04;1.90;;;0.60;;
65658;SDS011;60181;53.258;6.932;2024-01-16T03:04:15;1.90;;;0.60;;
65658;SDS011;60181;53.258;6.932;2024-01-16T03:08:27;1.90;;;0.60;;
65658;SDS011;60181;53.258;6.932;2024-01-16T03:12:39;2.00;;;0.50;;
65658;SDS011;60181;53.258;6.932;2024-01-16T03:16:51;2.00;;;0.50;;
65658;SDS011;60181;53.258;6.932;2024-01-16T03:21:06;2.30;;;0.80;;
65658;SDS011;60181;53.258;6.932;2024-01-16T03:25:18;2.30;;;0.80;;
65658;SDS011;60181;53.258;6.932;2024-01-16T03:29:27;2.30;;;0.80;;
65658;SDS011;60181;53.258;6.932;2024-01-16T03:33:39;3.50;;;0.50;;
65658;SDS011;60181;53.258;6.932;2024-01-16T03:37:51;3.50;;;0.50;;
65658;SDS011;60181;53.258;6.932;2024-01-16T03:42:03;3.60;;;0.70;;
65658;SDS011;60181;53.258;6.932;2024-01-16T03:46:15;3.60;;;0.70;;
65658;SDS011;60181;53.258;6.932;2024-01-16T03:50:27;1.80;;;0.50;;
65658;SDS011;60181;53.258;6.932;2024-01-16T03:54:39;1.80;;;0.50;;
65658;SDS011;60181;53.258;6.932;2024-01-16T03:58:51;1.80;;;0.50;;
65658;SDS011;60181;53.258;6.932;2024-01-16T04:03:03;2.50;;;0.50;;
65658;SDS011;60181;53.258;6.932;2024-01-16T04:07:15;2.50;;;0.50;;
65658;SDS011;60181;53.258;6.932;2024-01-16T04:11:27;1.90;;;0.40;;
65658;SDS011;60181;53.258;6.932;2024-01-16T04:15:39;1.90;;;0.40;;
65658;SDS011;60181;53.258;6.932;2024-01-16T04:19:51;1.90;;;0.40;;
65658;SDS011;60181;53.258;6.932;2024-01-16T04:24:03;3.40;;;0.50;;
65658;SDS011;60181;53.258;6.932;2024-01-16T04:28:15;3.40;;;0.50;;
65658;SDS011;60181;53.258;6.932;2024-01-16T04:32:27;2.20;;;0.50;;
65658;SDS011;60181;53.258;6.932;2024-01-16T04:36:39;2.20;;;0.50;;
65658;SDS011;60181;53.258;6.932;2024-01-16T04:40:51;0.80;;;0.30;;
65658;SDS011;60181;53.258;6.932;2024-01-16T04:45:03;0.80;;;0.30;;
65658;SDS011;60181;53.258;6.932;2024-01-16T04:49:15;0.80;;;0.30;;
65658;SDS011;60181;53.258;6.932;2024-01-16T04:53:27;2.10;;;0.40;;
65658;SDS011;60181;53.258;6.932;2024-01-16T04:57:39;2.10;;;0.40;;
65658;SDS011;60181;53.258;6.932;2024-01-16T05:01:51;1.40;;;0.40;;
65658;SDS011;60181;53.258;6.932;2024-01-16T05:06:03;1.40;;;0.40;;
65658;SDS011;60181;53.258;6.932;2024-01-16T05:10:15;2.70;;;0.60;;
65658;SDS011;60181;53.258;6.932;2024-01-16T05:14:27;2.70;;;0.60;;
65658;SDS011;60181;53.258;6.932;2024-01-16T05:18:42;2.70;;;0.60;;
65658;SDS011;60181;53.258;6.932;2024-01-16T05:22:51;3.40;;;0.60;;
65658;SDS011;60181;53.258;6.932;2024-01-16T05:27:03;3.40;;;0.60;;
65658;SDS011;60181;53.258;6.932;2024-01-16T05:31:15;3.90;;;0.40;;
65658;SDS011;60181;53.258;6.932;2024-01-16T05:35:27;3.90;;;0.40;;
65658;SDS011;60181;53.258;6.932;2024-01-16T05:39:39;3.90;;;0.40;;
65658;SDS011;60181;53.258;6.932;2024-01-16T05:43:51;4.20;;;0.50;;
65658;SDS011;60181;53.258;6.932;2024-01-16T05:48:03;4.20;;;0.50;;
65658;SDS011;60181;53.258;6.932;2024-01-16T05:52:15;4.50;;;0.50;;
65658;SDS011;60181;53.258;6.932;2024-01-16T05:56:27;4.50;;;0.50;;
65658;SDS011;60181;53.258;6.932;2024-01-16T06:00:39;3.50;;;0.60;;
65658;SDS011;60181;53.258;6.932;2024-01-16T06:04:51;3.50;;;0.60;;
65658;SDS011;60181;53.258;6.932;2024-01-16T06:09:03;3.50;;;0.60;;
65658;SDS011;60181;53.258;6.932;2024-01-16T06:13:16;2.50;;;0.40;;
65658;SDS011;60181;53.258;6.932;2024-01-16T06:17:27;2.50;;;0.40;;
65658;SDS011;60181;53.258;6.932;2024-01-16T06:21:39;2.90;;;0.50;;
65658;SDS011;60181;53.258;6.932;2024-01-16T06:25:51;2.90;;;0.50;;
65658;SDS011;60181;53.258;6.932;2024-01-16T06:30:03;1.10;;;0.40;;
65658;SDS011;60181;53.258;6.932;2024-01-16T06:34:15;1.10;;;0.40;;
65658;SDS011;60181;53.258;6.932;2024-01-16T06:38:27;1.10;;;0.40;;
65658;SDS011;60181;53.258;6.932;2024-01-16T06:42:39;4.10;;;0.50;;
65658;SDS011;60181;53.258;6.932;2024-01-16T06:46:51;4.10;;;0.50;;
65658;SDS011;60181;53.258;6.932;2024-01-16T06:51:03;3.10;;;0.50;;
65658;SDS011;60181;53.258;6.932;2024-01-16T06:55:15;3.10;;;0.50;;
65658;SDS011;60181;53.258;6.932;2024-01-16T06:59:27;3.10;;;0.50;;
65658;SDS011;60181;53.258;6.932;2024-01-16T07:03:39;1.80;;;0.40;;
65658;SDS011;60181;53.258;6.932;2024-01-16T07:07:51;1.80;;;0.40;;
65658;SDS011;60181;53.258;6.932;2024-01-16T07:12:03;3.30;;;0.50;;
65658;SDS011;60181;53.258;6.932;2024-01-16T07:16:15;3.30;;;0.50;;
65658;SDS011;60181;53.258;6.932;2024-01-16T07:20:27;3.10;;;0.50;;
65658;SDS011;60181;53.258;6.932;2024-01-16T07:24:39;3.10;;;0.50;;
65658;SDS011;60181;53.258;6.932;2024-01-16T07:28:51;3.10;;;0.50;;
65658;SDS011;60181;53.258;6.932;2024-01-16T07:33:03;3.40;;;0.50;;
65658;SDS011;60181;53.258;6.932;2024-01-16T07:37:15;3.40;;;0.50;;
65658;SDS011;60181;53.258;6.932;2024-01-16T07:41:27;1.80;;;0.50;;
65658;SDS011;60181;53.258;6.932;2024-01-16T07:45:39;1.80;;;0.50;;
65658;SDS011;60181;53.258;6.932;2024-01-16T07:49:51;1.80;;;0.50;;
65658;SDS011;60181;53.258;6.932;2024-01-16T07:54:06;2.90;;;0.50;;
65658;SDS011;60181;53.258;6.932;2024-01-16T07:58:15;2.90;;;0.50;;
65658;SDS011;60181;53.258;6.932;2024-01-16T08:02:31;2.60;;;0.60;;
65658;SDS011;60181;53.258;6.932;2024-01-16T08:06:39;2.60;;;0.60;;
65658;SDS011;60181;53.258;6.932;2024-01-16T08:10:51;1.60;;;0.60;;
65658;SDS011;60181;53.258;6.932;2024-01-16T08:15:04;1.60;;;0.60;;
65658;SDS011;60181;53.258;6.932;2024-01-16T08:19:15;1.60;;;0.60;;
65658;SDS011;60181;53.258;6.932;2024-01-16T08:23:27;1.60;;;0.60;;
65658;SDS011;60181;53.258;6.932;2024-01-16T08:27:39;1.60;;;0.60;;
65658;SDS011;60181;53.258;6.932;2024-01-16T08:31:51;3.40;;;0.80;;
65658;SDS011;60181;53.258;6.932;2024-01-16T08:36:03;3.40;;;0.80;;
65658;SDS011;60181;53.258;6.932;2024-01-16T08:40:15;1.40;;;0.40;;
65658;SDS011;60181;53.258;6.932;2024-01-16T08:44:27;1.40;;;0.40;;
65658;SDS011;60181;53.258;6.932;2024-01-16T08:48:39;1.40;;;0.40;;
65658;SDS011;60181;53.258;6.932;2024-01-16T08:52:51;2.70;;;0.50;;
65658;SDS011;60181;53.258;6.932;2024-01-16T08:57:03;2.70;;;0.50;;
65658;SDS011;60181;53.258;6.932;2024-01-16T09:01:15;4.00;;;0.50;;
65658;SDS011;60181;53.258;6.932;2024-01-16T09:05:27;4.00;;;0.50;;
65658;SDS011;60181;53.258;6.932;2024-01-16T09:09:39;4.00;;;0.50;;
65658;SDS011;60181;53.258;6.932;2024-01-16T09:13:51;2.50;;;0.60;;
65658;SDS011;60181;53.258;6.932;2024-01-16T09:18:03;2.50;;;0.60;;
65658;SDS011;60181;53.258;6.932;2024-01-16T09:22:15;2.60;;;0.60;;
65658;SDS011;60181;53.258;6.932;2024-01-16T09:26:27;2.60;;;0.60;;
65658;SDS011;60181;53.258;6.932;2024-01-16T09:30:39;2.10;;;0.40;;
65658;SDS011;60181;53.258;6.932;2024-01-16T09:34:51;2.10;;;0.40;;
65658;SDS011;60181;53.258;6.932;2024-01-16T09:39:04;2.10;;;0.40;;
65658;SDS011;60181;53.258;6.932;2024-01-16T09:43:15;3.40;;;0.50;;
65658;SDS011;60181;53.258;6.932;2024-01-16T09:47:27;3.40;;;0.50;;
65658;SDS011;60181;53.258;6.932;2024-01-16T09:51:39;1.00;;;0.50;;
65658;SDS011;60181;53.258;6.932;2024-01-16T09:55:51;1.00;;;0.50;;
65658;SDS011;60181;53.258;6.932;2024-01-16T10:00:03;1.80;;;0.70;;
65658;SDS011;60181;53.258;6.932;2024-01-16T10:04:15;1.80;;;0.70;;
65658;SDS011;60181;53.258;6.932;2024-01-16T10:08:27;1.80;;;0.70;;
65658;SDS011;60181;53.258;6.932;2024-01-16T10:12:39;2.40;;;0.60;;
65658;SDS011;60181;53.258;6.932;2024-01-16T10:17:00;2.40;;;0.60;;
65658;SDS011;60181;53.258;6.932;2024-01-16T10:21:03;2.00;;;0.40;;
65658;SDS011;60181;53.258;6.932;2024-01-16T10:25:15;2.00;;;0.40;;
65658;SDS011;60181;53.258;6.932;2024-01-16T10:29:27;2.00;;;0.40;;
65658;SDS011;60181;53.258;6.932;2024-01-16T10:33:39;5.10;;;0.50;;
65658;SDS011;60181;53.258;6.932;2024-01-16T10:37:51;5.10;;;0.50;;
65658;SDS011;60181;53.258;6.932;2024-01-16T10:42:03;8.20;;;0.60;;
65658;SDS011;60181;53.258;6.932;2024-01-16T10:46:15;8.20;;;0.60;;
65658;SDS011;60181;53.258;6.932;2024-01-16T10:50:26;9.80;;;0.80;;
65658;SDS011;60181;53.258;6.932;2024-01-16T10:54:40;9.80;;;0.80;;
65658;SDS011;60181;53.258;6.932;2024-01-16T10:58:54;9.80;;;0.80;;
65658;SDS011;60181;53.258;6.932;2024-01-16T11:03:06;5.20;;;0.80;;
65658;SDS011;60181;53.258;6.932;2024-01-16T11:07:14;5.20;;;0.80;;
65658;SDS011;60181;53.258;6.932;2024-01-16T11:11:26;7.90;;;1.10;;
65658;SDS011;60181;53.258;6.932;2024-01-16T11:15:38;7.90;;;1.10;;
65658;SDS011;60181;53.258;6.932;2024-01-16T11:19:50;7.90;;;1.10;;
65658;SDS011;60181;53.258;6.932;2024-01-16T11:24:03;4.80;;;0.70;;
65658;SDS011;60181;53.258;6.932;2024-01-16T11:28:15;4.80;;;0.70;;
65658;SDS011;60181;53.258;6.932;2024-01-16T11:32:37;3.90;;;0.50;;
65658;SDS011;60181;53.258;6.932;2024-01-16T11:36:51;3.90;;;0.50;;
65658;SDS011;60181;53.258;6.932;2024-01-16T11:40:50;4.00;;;0.70;;
65658;SDS011;60181;53.258;6.932;2024-01-16T11:45:03;4.00;;;0.70;;
65658;SDS011;60181;53.258;6.932;2024-01-16T11:49:18;4.00;;;0.70;;
65658;SDS011;60181;53.258;6.932;2024-01-16T11:53:33;3.50;;;0.80;;
65658;SDS011;60181;53.258;6.932;2024-01-16T11:57:53;3.50;;;0.80;;
65658;SDS011;60181;53.258;6.932;2024-01-16T12:01:50;3.50;;;0.60;;
65658;SDS011;60181;53.258;6.932;2024-01-16T12:06:03;3.50;;;0.60;;
65658;SDS011;60181;53.258;6.932;2024-01-16T12:10:18;2.50;;;0.70;;
65658;SDS011;60181;53.258;6.932;2024-01-16T12:14:27;2.50;;;0.70;;
65658;SDS011;60181;53.258;6.932;2024-01-16T12:18:38;2.50;;;0.70;;
65658;SDS011;60181;53.258;6.932;2024-01-16T12:22:53;4.00;;;0.60;;
65658;SDS011;60181;53.258;6.932;2024-01-16T12:27:03;4.00;;;0.60;;
65658;SDS011;60181;53.258;6.932;2024-01-16T12:31:17;4.00;;;0.70;;
65658;SDS011;60181;53.258;6.932;2024-01-16T12:35:26;4.00;;;0.70;;
65658;SDS011;60181;53.258;6.932;2024-01-16T12:39:38;4.00;;;0.70;;
65658;SDS011;60181;53.258;6.932;2024-01-16T12:43:50;3.60;;;0.70;;
65658;SDS011;60181;53.258;6.932;2024-01-16T12:48:03;3.60;;;0.70;;
65658;SDS011;60181;53.258;6.932;2024-01-16T12:52:18;4.10;;;0.80;;
65658;SDS011;60181;53.258;6.932;2024-01-16T12:56:26;4.10;;;0.80;;
65658;SDS011;60181;53.258;6.932;2024-01-16T13:00:38;3.40;;;0.60;;
65658;SDS011;60181;53.258;6.932;2024-01-16T13:04:57;3.40;;;0.60;;
65658;SDS011;60181;53.258;6.932;2024-01-16T13:09:06;3.40;;;0.60;;
65658;SDS011;60181;53.258;6.932;2024-01-16T13:13:15;5.10;;;0.90;;
65658;SDS011;60181;53.258;6.932;2024-01-16T13:17:26;5.10;;;0.90;;
65658;SDS011;60181;53.258;6.932;2024-01-16T13:21:38;2.20;;;0.60;;
65658;SDS011;60181;53.258;6.932;2024-01-16T13:25:51;2.20;;;0.60;;
65658;SDS011;60181;53.258;6.932;2024-01-16T13:30:02;2.40;;;0.60;;
65658;SDS011;60181;53.258;6.932;2024-01-16T13:34:14;2.40;;;0.60;;
65658;SDS011;60181;53.258;6.932;2024-01-16T13:38:26;2.40;;;0.60;;
65658;SDS011;60181;53.258;6.932;2024-01-16T13:42:38;2.50;;;0.80;;
65658;SDS011;60181;53.258;6.932;2024-01-16T13:46:50;2.50;;;0.80;;
65658;SDS011;60181;53.258;6.932;2024-01-16T13:51:02;3.20;;;0.60;;
65658;SDS011;60181;53.258;6.932;2024-01-16T13:55:14;3.20;;;0.60;;
65658;SDS011;60181;53.258;6.932;2024-01-16T13:59:26;3.20;;;0.60;;
65658;SDS011;60181;53.258;6.932;2024-01-16T14:03:38;2.20;;;0.60;;
65658;SDS011;60181;53.258;6.932;2024-01-16T14:07:51;2.20;;;0.60;;
65658;SDS011;60181;53.258;6.932;2024-01-16T14:12:03;2.60;;;0.80;;
65658;SDS011;60181;53.258;6.932;2024-01-16T14:16:14;2.60;;;0.80;;
65658;SDS011;60181;53.258;6.932;2024-01-16T14:20:26;1.30;;;0.70;;
65658;SDS011;60181;53.258;6.932;2024-01-16T14:24:38;1.30;;;0.70;;
65658;SDS011;60181;53.258;6.932;2024-01-16T14:28:50;1.30;;;0.70;;
65658;SDS011;60181;53.258;6.932;2024-01-16T14:33:02;3.70;;;0.70;;
65658;SDS011;60181;53.258;6.932;2024-01-16T14:37:14;3.70;;;0.70;;
65658;SDS011;60181;53.258;6.932;2024-01-16T14:41:26;3.00;;;0.80;;
65658;SDS011;60181;53.258;6.932;2024-01-16T14:45:38;3.00;;;0.80;;
65658;SDS011;60181;53.258;6.932;2024-01-16T14:49:50;3.00;;;0.80;;
65658;SDS011;60181;53.258;6.932;2024-01-16T14:54:02;3.40;;;0.70;;
65658;SDS011;60181;53.258;6.932;2024-01-16T14:58:14;3.40;;;0.70;;
65658;SDS011;60181;53.258;6.932;2024-01-16T15:02:26;1.70;;;0.80;;
65658;SDS011;60181;53.258;6.932;2024-01-16T15:06:38;1.70;;;0.80;;
65658;SDS011;60181;53.258;6.932;2024-01-16T15:10:50;1.10;;;0.70;;
65658;SDS011;60181;53.258;6.932;2024-01-16T15:15:02;1.10;;;0.70;;
65658;SDS011;60181;53.258;6.932;2024-01-16T15:19:14;1.10;;;0.70;;
65658;SDS011;60181;53.258;6.932;2024-01-16T15:23:26;1.70;;;0.80;;
65658;SDS011;60181;53.258;6.932;2024-01-16T15:27:38;1.70;;;0.80;;
65658;SDS011;60181;53.258;6.932;2024-01-16T15:31:50;3.20;;;0.90;;
65658;SDS011;60181;53.258;6.932;2024-01-16T15:36:02;3.20;;;0.90;;
65658;SDS011;60181;53.258;6.932;2024-01-16T15:40:14;1.70;;;0.70;;
65658;SDS011;60181;53.258;6.932;2024-01-16T15:44:26;1.70;;;0.70;;
65658;SDS011;60181;53.258;6.932;2024-01-16T15:48:38;1.70;;;0.70;;
65658;SDS011;60181;53.258;6.932;2024-01-16T15:52:50;2.70;;;0.80;;
65658;SDS011;60181;53.258;6.932;2024-01-16T15:57:02;2.70;;;0.80;;
65658;SDS011;60181;53.258;6.932;2024-01-16T16:01:14;2.40;;;0.80;;
65658;SDS011;60181;53.258;6.932;2024-01-16T16:05:26;2.40;;;0.80;;
65658;SDS011;60181;53.258;6.932;2024-01-16T16:09:38;2.40;;;0.80;;
65658;SDS011;60181;53.258;6.932;2024-01-16T16:13:51;1.80;;;0.90;;
65658;SDS011;60181;53.258;6.932;2024-01-16T16:18:02;1.80;;;0.90;;
65658;SDS011;60181;53.258;6.932;2024-01-16T16:22:14;1.50;;;0.70;;
65658;SDS011;60181;53.258;6.932;2024-01-16T16:26:36;1.50;;;0.70;;
65658;SDS011;60181;53.258;6.932;2024-01-16T16:30:38;2.70;;;0.80;;
65658;SDS011;60181;53.258;6.932;2024-01-16T16:34:50;2.70;;;0.80;;
65658;SDS011;60181;53.258;6.932;2024-01-16T16:39:02;2.70;;;0.80;;
65658;SDS011;60181;53.258;6.932;2024-01-16T16:43:14;3.20;;;0.80;;
65658;SDS011;60181;53.258;6.932;2024-01-16T16:47:26;3.20;;;0.80;;
65658;SDS011;60181;53.258;6.932;2024-01-16T16:51:38;2.10;;;0.80;;
65658;SDS011;60181;53.258;6.932;2024-01-16T16:55:50;2.10;;;0.80;;
65658;SDS011;60181;53.258;6.932;2024-01-16T17:00:02;2.50;;;1.00;;
65658;SDS011;60181;53.258;6.932;2024-01-16T17:04:14;2.50;;;1.00;;
65658;SDS011;60181;53.258;6.932;2024-01-16T17:08:26;2.50;;;1.00;;
65658;SDS011;60181;53.258;6.932;2024-01-16T17:12:38;2.10;;;1.00;;
65658;SDS011;60181;53.258;6.932;2024-01-16T17:16:50;2.10;;;1.00;;
65658;SDS011;60181;53.258;6.932;2024-01-16T17:21:02;1.70;;;0.90;;
65658;SDS011;60181;53.258;6.932;2024-01-16T17:25:14;1.70;;;0.90;;
65658;SDS011;60181;53.258;6.932;2024-01-16T17:29:26;1.70;;;0.90;;
65658;SDS011;60181;53.258;6.932;2024-01-16T17:33:38;1.70;;;0.90;;
65658;SDS011;60181;53.258;6.932;2024-01-16T17:37:50;1.70;;;0.90;;
65658;SDS011;60181;53.258;6.932;2024-01-16T17:42:02;1.70;;;1.00;;
65658;SDS011;60181;53.258;6.932;2024-01-16T17:46:14;1.70;;;1.00;;
65658;SDS011;60181;53.258;6.932;2024-01-16T17:50:26;3.20;;;1.10;;
65658;SDS011;60181;53.258;6.932;2024-01-16T17:54:38;3.20;;;1.10;;
65658;SDS011;60181;53.258;6.932;2024-01-16T17:58:50;3.20;;;1.10;;
65658;SDS011;60181;53.258;6.932;2024-01-16T18:03:05;2.40;;;1.10;;
65658;SDS011;60181;53.258;6.932;2024-01-16T18:07:14;2.40;;;1.10;;
65658;SDS011;60181;53.258;6.932;2024-01-16T18:11:26;1.60;;;1.00;;
65658;SDS011;60181;53.258;6.932;2024-01-16T18:15:38;1.60;;;1.00;;
65658;SDS011;60181;53.258;6.932;2024-01-16T18:19:50;1.60;;;1.00;;
65658;SDS011;60181;53.258;6.932;2024-01-16T18:24:02;2.40;;;1.10;;
65658;SDS011;60181;53.258;6.932;2024-01-16T18:28:14;2.40;;;1.10;;
65658;SDS011;60181;53.258;6.932;2024-01-16T18:32:26;3.30;;;1.40;;
65658;SDS011;60181;53.258;6.932;2024-01-16T18:36:38;3.30;;;1.40;;
65658;SDS011;60181;53.258;6.932;2024-01-16T18:40:50;3.30;;;1.20;;
65658;SDS011;60181;53.258;6.932;2024-01-16T18:45:02;3.30;;;1.20;;
65658;SDS011;60181;53.258;6.932;2024-01-16T18:49:14;3.30;;;1.20;;
65658;SDS011;60181;53.258;6.932;2024-01-16T18:53:26;3.80;;;1.30;;
65658;SDS011;60181;53.258;6.932;2024-01-16T18:57:38;3.80;;;1.30;;
65658;SDS011;60181;53.258;6.932;2024-01-16T19:01:50;2.80;;;1.20;;
65658;SDS011;60181;53.258;6.932;2024-01-16T19:06:03;2.80;;;1.20;;
65658;SDS011;60181;53.258;6.932;2024-01-16T19:10:14;2.20;;;1.30;;
65658;SDS011;60181;53.258;6.932;2024-01-16T19:14:26;2.20;;;1.30;;
65658;SDS011;60181;53.258;6.932;2024-01-16T19:18:38;2.20;;;1.30;;
65658;SDS011;60181;53.258;6.932;2024-01-16T19:22:50;2.70;;;1.30;;
65658;SDS011;60181;53.258;6.932;2024-01-16T19:27:02;2.70;;;1.30;;
65658;SDS011;60181;53.258;6.932;2024-01-16T19:31:14;3.20;;;1.40;;
65658;SDS011;60181;53.258;6.932;2024-01-16T19:35:26;3.20;;;1.40;;
65658;SDS011;60181;53.258;6.932;2024-01-16T19:39:38;3.20;;;1.40;;
65658;SDS011;60181;53.258;6.932;2024-01-16T19:43:50;2.10;;;1.20;;
65658;SDS011;60181;53.258;6.932;2024-01-16T19:48:02;2.10;;;1.20;;
65658;SDS011;60181;53.258;6.932;2024-01-16T19:52:14;2.50;;;1.20;;
65658;SDS011;60181;53.258;6.932;2024-01-16T19:56:26;2.50;;;1.20;;
65658;SDS011;60181;53.258;6.932;2024-01-16T20:00:38;4.20;;;1.50;;
65658;SDS011;60181;53.258;6.932;2024-01-16T20:04:50;4.20;;;1.50;;
65658;SDS011;60181;53.258;6.932;2024-01-16T20:09:02;4.20;;;1.50;;
65658;SDS011;60181;53.258;6.932;2024-01-16T20:13:14;2.30;;;1.40;;
65658;SDS011;60181;53.258;6.932;2024-01-16T20:17:26;2.30;;;1.40;;
65658;SDS011;60181;53.258;6.932;2024-01-16T20:21:38;2.50;;;1.30;;
65658;SDS011;60181;53.258;6.932;2024-01-16T20:25:50;2.50;;;1.30;;
65658;SDS011;60181;53.258;6.932;2024-01-16T20:30:02;2.50;;;1.30;;
65658;SDS011;60181;53.258;6.932;2024-01-16T20:34:14;2.50;;;1.30;;
65658;SDS011;60181;53.258;6.932;2024-01-16T20:38:26;2.50;;;1.30;;
65658;SDS011;60181;53.258;6.932;2024-01-16T20:42:38;2.70;;;1.50;;
65658;SDS011;60181;53.258;6.932;2024-01-16T20:46:50;2.70;;;1.50;;
65658;SDS011;60181;53.258;6.932;2024-01-16T20:51:02;2.50;;;1.30;;
65658;SDS011;60181;53.258;6.932;2024-01-16T20:55:14;2.50;;;1.30;;
65658;SDS011;60181;53.258;6.932;2024-01-16T20:59:26;2.50;;;1.30;;
65658;SDS011;60181;53.258;6.932;2024-01-16T21:03:38;3.20;;;1.40;;
65658;SDS011;60181;53.258;6.932;2024-01-16T21:07:50;3.20;;;1.40;;
65658;SDS011;60181;53.258;6.932;2024-01-16T21:12:02;2.20;;;1.40;;
65658;SDS011;60181;53.258;6.932;2024-01-16T21:16:14;2.20;;;1.40;;
65658;SDS011;60181;53.258;6.932;2024-01-16T21:20:26;2.80;;;1.50;;
65658;SDS011;60181;53.258;6.932;2024-01-16T21:24:38;2.80;;;1.50;;
65658;SDS011;60181;53.258;6.932;2024-01-16T21:28:50;2.80;;;1.50;;
65658;SDS011;60181;53.258;6.932;2024-01-16T21:33:02;3.40;;;1.50;;
65658;SDS011;60181;53.258;6.932;2024-01-16T21:37:14;3.40;;;1.50;;
65658;SDS011;60181;53.258;6.932;2024-01-16T21:41:26;3.00;;;1.40;;
65658;SDS011;60181;53.258;6.932;2024-01-16T21:45:38;3.00;;;1.40;;
65658;SDS011;60181;53.258;6.932;2024-01-16T21:49:50;3.00;;;1.40;;
65658;SDS011;60181;53.258;6.932;2024-01-16T21:54:02;2.70;;;1.50;;
65658;SDS011;60181;53.258;6.932;2024-01-16T21:58:14;2.70;;;1.50;;
65658;SDS011;60181;53.258;6.932;2024-01-16T22:02:26;5.10;;;1.70;;
65658;SDS011;60181;53.258;6.932;2024-01-16T22:06:38;5.10;;;1.70;;
65658;SDS011;60181;53.258;6.932;2024-01-16T22:10:50;4.10;;;1.80;;
65658;SDS011;60181;53.258;6.932;2024-01-16T22:15:02;4.10;;;1.80;;
65658;SDS011;60181;53.258;6.932;2024-01-16T22:19:14;4.10;;;1.80;;
65658;SDS011;60181;53.258;6.932;2024-01-16T22:23:26;2.50;;;1.50;;
65658;SDS011;60181;53.258;6.932;2024-01-16T22:27:38;2.50;;;1.50;;
65658;SDS011;60181;53.258;6.932;2024-01-16T22:31:50;3.00;;;1.60;;
65658;SDS011;60181;53.258;6.932;2024-01-16T22:36:02;3.00;;;1.60;;
65658;SDS011;60181;53.258;6.932;2024-01-16T22:40:14;4.10;;;1.50;;
65658;SDS011;60181;53.258;6.932;2024-01-16T22:44:25;4.10;;;1.50;;
65658;SDS011;60181;53.258;6.932;2024-01-16T22:48:37;4.10;;;1.50;;
65658;SDS011;60181;53.258;6.932;2024-01-16T22:52:49;4.90;;;1.90;;
65658;SDS011;60181;53.258;6.932;2024-01-16T22:57:02;4.90;;;1.90;;
65658;SDS011;60181;53.258;6.932;2024-01-16T23:01:13;4.10;;;1.70;;
65658;SDS011;60181;53.258;6.932;2024-01-16T23:05:25;4.10;;;1.70;;
65658;SDS011;60181;53.258;6.932;2024-01-16T23:09:37;4.10;;;1.70;;
65658;SDS011;60181;53.258;6.932;2024-01-16T23:13:52;3.60;;;1.90;;
65658;SDS011;60181;53.258;6.932;2024-01-16T23:18:01;3.60;;;1.90;;
65658;SDS011;60181;53.258;6.932;2024-01-16T23:22:13;4.20;;;1.60;;
65658;SDS011;60181;53.258;6.932;2024-01-16T23:26:25;4.20;;;1.60;;
65658;SDS011;60181;53.258;6.932;2024-01-16T23:30:38;3.60;;;1.80;;
65658;SDS011;60181;53.258;6.932;2024-01-16T23:34:49;3.60;;;1.80;;
65658;SDS011;60181;53.258;6.932;2024-01-16T23:39:01;3.60;;;1.80;;
65658;SDS011;60181;53.258;6.932;2024-01-16T23:43:13;3.20;;;1.70;;
65658;SDS011;60181;53.258;6.932;2024-01-16T23:47:25;3.20;;;1.70;;
65658;SDS011;60181;53.258;6.932;2024-01-16T23:51:37;3.20;;;1.70;;
65658;SDS011;60181;53.258;6.932;2024-01-16T23:55:49;3.20;;;1.70;;
